Time;durP1;ratioP1;P1;durP2;ratioP2;P2;SDS_P1;SDS_P2;PMS_P1;PMS_P2;Temp;Humidity;BMP_temperature;BMP_pressure;BME280_temperature;BME280_humidity;BME280_pressure;Samples;Min_cycle;Max_cycle;Signal;HPM_P1;HPM_P2
2023/10/06 00:02:07;;;;;;;27.17;17.20;;;;;;;-149.70;100.00;77823.56;4872316;29;20045;-66
2023/10/06 00:04:38;;;;;;;23.83;17.23;;;;;;;-149.70;100.00;77823.56;4858111;29;20124;-66
2023/10/06 00:07:07;;;;;;;25.95;16.63;;;;;;;-149.70;100.00;77819.50;4857673;29;20131;-66
2023/10/06 00:09:35;;;;;;;22.55;15.63;;;;;;;-149.70;100.00;77805.28;4873239;29;20041;-65
2023/10/06 00:12:05;;;;;;;23.73;14.68;;;;;;;-149.70;100.00;77789.00;4874890;29;20057;-66
2023/10/06 00:14:40;;;;;;;22.92;15.45;;;;;;;-149.70;100.00;77799.16;4876583;29;20081;-66
2023/10/06 00:17:19;;;;;;;20.40;15.18;;;;;;;-149.70;100.00;77793.06;4875514;29;20128;-66
2023/10/06 00:19:51;;;;;;;23.55;16.10;;;;;;;-149.70;100.00;77797.13;4875755;29;20048;-66
2023/10/06 00:22:18;;;;;;;24.33;15.25;;;;;;;-149.70;100.00;77784.94;4875607;29;20059;-66
2023/10/06 00:24:50;;;;;;;25.45;15.20;;;;;;;-149.70;100.00;77784.94;4878643;29;20064;-66
2023/10/06 00:27:29;;;;;;;20.15;13.48;;;;;;;-149.70;100.00;77786.97;4878305;29;20060;-67
2023/10/06 00:29:56;;;;;;;19.02;13.63;;;;;;;-149.70;100.00;77778.81;4879306;29;25277;-66
2023/10/06 00:32:28;;;;;;;21.30;15.60;;;;;;;-149.70;100.00;77780.84;4863036;29;20049;-66
2023/10/06 00:35:08;;;;;;;;;;;;;;;-149.70;100.00;77782.91;4879372;29;20053;-66
2023/10/06 00:37:36;;;;;;;20.83;14.88;;;;;;;-149.70;100.00;77776.78;4895075;29;19923;-68
2023/10/06 00:40:10;;;;;;;22.58;14.77;;;;;;;-149.70;100.00;77780.84;4897572;29;20456;-66
2023/10/06 00:42:37;;;;;;;22.20;14.82;;;;;;;-149.70;100.00;77774.75;4885848;29;20128;-66
2023/10/06 00:45:07;;;;;;;21.13;14.50;;;;;;;-149.70;100.00;77764.59;4879388;29;20096;-66
2023/10/06 00:47:41;;;;;;;20.73;14.73;;;;;;;-149.70;100.00;77768.66;4878882;29;20053;-66
2023/10/06 00:50:10;;;;;;;21.92;14.23;;;;;;;-149.70;100.00;77758.50;4878982;29;20491;-67
2023/10/06 00:52:39;;;;;;;21.33;13.98;;;;;;;-149.70;100.00;77746.28;4862317;29;20141;-66
2023/10/06 00:55:10;;;;;;;20.23;14.27;;;;;;;-149.70;100.00;77766.63;4879188;29;20148;-66
2023/10/06 00:57:38;;;;;;;20.90;14.02;;;;;;;-149.70;100.00;77754.41;4878852;29;20053;-66
2023/10/06 01:00:20;;;;;;;20.95;13.65;;;;;;;-149.70;100.00;77740.19;4878315;29;20053;-66
2023/10/06 01:02:49;;;;;;;21.80;13.30;;;;;;;-149.70;100.00;77732.03;4859929;29;20049;-66
2023/10/06 01:05:17;;;;;;;23.55;15.20;;;;;;;-149.70;100.00;77736.13;4858594;29;20145;-66
2023/10/06 01:07:46;;;;;;;21.45;13.90;;;;;;;-149.70;100.00;77730.00;4843460;29;20057;-66
2023/10/06 01:10:27;;;;;;;19.95;14.02;;;;;;;-149.70;100.00;77736.13;4867261;29;20048;-62
2023/10/06 01:12:56;;;;;;;17.58;13.90;;;;;;;-149.70;100.00;77727.97;4869787;29;20424;-62
2023/10/06 01:15:29;;;;;;;21.10;14.18;;;;;;;-149.70;100.00;77736.13;4870311;29;20057;-60
2023/10/06 01:17:57;;;;;;;20.48;13.98;;;;;;;-149.70;100.00;77734.09;4870111;29;20057;-61
2023/10/06 01:20:41;;;;;;;23.27;15.02;;;;;;;-149.70;100.00;77738.16;4870331;29;20054;-60
2023/10/06 01:23:16;;;;;;;20.90;14.25;;;;;;;-149.70;100.00;77719.84;4870267;29;20049;-62
2023/10/06 01:25:43;;;;;;;20.88;13.95;;;;;;;-149.70;100.00;77723.91;4870033;29;20049;-61
2023/10/06 01:28:12;;;;;;;23.08;14.70;;;;;;;-149.70;100.00;77717.81;4869452;29;20121;-61
2023/10/06 01:30:39;;;;;;;21.73;14.20;;;;;;;-149.70;100.00;77715.78;4870547;29;20053;-62
2023/10/06 01:33:07;;;;;;;20.35;14.63;;;;;;;-149.70;100.00;77705.59;4870666;29;20057;-60
2023/10/06 01:35:34;;;;;;;22.55;15.48;;;;;;;-149.70;100.00;77715.78;4869638;29;20450;-61
2023/10/06 01:38:01;;;;;;;23.35;15.00;;;;;;;-149.70;100.00;77719.84;4851000;29;20054;-61
2023/10/06 01:42:55;;;;;;;22.58;15.07;;;;;;;-149.70;100.00;77717.81;4850414;29;20046;-61
2023/10/06 01:45:22;;;;;;;22.75;15.35;;;;;;;-149.70;100.00;77711.72;4851310;29;20069;-60
2023/10/06 01:47:58;;;;;;;28.63;16.40;;;;;;;-149.70;100.00;77713.75;4850515;29;20065;-60
2023/10/06 01:50:27;;;;;;;23.55;16.58;;;;;;;-149.70;100.00;77719.84;4850782;29;20131;-60
2023/10/06 01:52:55;;;;;;;23.55;16.90;;;;;;;-149.70;100.00;77721.88;4850590;29;20054;-63
2023/10/06 01:55:24;;;;;;;26.70;17.45;;;;;;;-149.70;100.00;77715.78;4850620;29;20445;-60
2023/10/06 01:57:54;;;;;;;27.95;17.52;;;;;;;-149.70;100.00;77711.72;4850791;29;20053;-60
2023/10/06 02:00:31;;;;;;;21.98;16.80;;;;;;;-149.70;100.00;77711.72;4851532;29;20141;-60
2023/10/06 02:02:58;;;;;;;27.55;17.38;;;;;;;-149.70;100.00;77711.72;4869199;29;20063;-60
2023/10/06 02:09:15;;;;;;;23.58;16.70;;;;;;;-149.70;100.00;77687.31;4843863;29;20060;-61
2023/10/06 02:11:42;;;;;;;21.30;16.55;;;;;;;-149.70;100.00;77683.22;4850894;29;20498;-62
2023/10/06 02:14:11;;;;;;;28.00;17.90;;;;;;;-149.70;100.00;77683.22;4866698;29;20069;-62
2023/10/06 02:16:37;;;;;;;26.77;17.27;;;;;;;-149.70;100.00;77679.16;4850256;29;20459;-64
2023/10/06 02:19:11;;;;;;;29.08;18.83;;;;;;;-149.70;100.00;77685.25;4866521;29;20076;-61
2023/10/06 02:21:50;;;;;;;24.98;18.13;;;;;;;-149.70;100.00;77679.16;4866001;29;20046;-63
2023/10/06 02:24:17;;;;;;;29.27;18.90;;;;;;;-149.70;100.00;77693.41;4866261;29;20503;-60
2023/10/06 02:26:50;;;;;;;24.65;18.77;;;;;;;-149.70;100.00;77693.41;4867057;29;20109;-61
2023/10/06 02:29:22;;;;;;;27.48;19.15;;;;;;;-149.70;100.00;77685.25;4866455;29;20068;-61
2023/10/06 02:32:00;;;;;;;26.33;18.30;;;;;;;-149.70;100.00;77671.03;4866054;29;20053;-60
2023/10/06 02:34:29;;;;;;;32.75;20.00;;;;;;;-149.70;100.00;77666.97;4867342;29;20064;-61
2023/10/06 02:36:56;;;;;;;28.27;19.90;;;;;;;-149.70;100.00;77671.03;4888452;29;20115;-60
2023/10/06 02:39:28;;;;;;;28.33;18.75;;;;;;;-149.70;100.00;77669.00;4903553;29;20056;-60
2023/10/06 02:41:57;;;;;;;27.48;19.65;;;;;;;-149.70;100.00;77671.03;4887854;29;20096;-61
2023/10/06 02:44:25;;;;;;;25.75;19.48;;;;;;;-149.70;100.00;77662.88;4904081;29;20054;-60
2023/10/06 02:46:52;;;;;;;28.58;19.35;;;;;;;-149.70;100.00;77652.72;4903787;29;20469;-61
2023/10/06 02:49:37;;;;;;;28.77;19.38;;;;;;;-149.70;100.00;77662.88;4903660;29;20048;-61
2023/10/06 02:52:21;;;;;;;32.22;20.35;;;;;;;-149.70;100.00;77656.78;4903616;29;20037;-60
2023/10/06 02:57:35;;;;;;;33.28;21.02;;;;;;;-149.70;100.00;77654.75;4904158;29;20413;-61
2023/10/06 03:00:50;;;;;;;;;;;;;;;-149.70;100.00;77638.47;4904150;29;20068;-61
2023/10/06 03:03:02;;;;;;;43.10;21.38;;;;;;;-149.70;100.00;77642.56;4895906;29;20284;-60
2023/10/06 03:05:32;;;;;;;31.80;21.45;;;;;;;-149.70;100.00;77642.56;4902669;29;20055;-61
2023/10/06 03:08:08;;;;;;;38.42;23.13;;;;;;;-149.70;100.00;77640.53;4902986;29;20568;-60
2023/10/06 03:10:43;;;;;;;33.00;22.90;;;;;;;-149.70;100.00;77640.53;4903314;29;20043;-60
2023/10/06 03:13:13;;;;;;;36.50;22.40;;;;;;;-149.70;100.00;77638.47;4903335;29;20044;-62
2023/10/06 03:15:46;;;;;;;36.80;24.08;;;;;;;-149.70;100.00;77640.53;4903260;29;20055;-62
2023/10/06 03:18:15;;;;;;;42.03;23.25;;;;;;;-149.70;100.00;77644.59;4903056;29;20049;-62
2023/10/06 03:21:13;;;;;;;41.00;25.88;;;;;;;-149.70;100.00;77644.59;4903487;29;20044;-61
2023/10/06 03:23:43;;;;;;;37.63;25.50;;;;;;;-149.70;100.00;77634.41;4903559;29;20052;-61
2023/10/06 03:26:33;;;;;;;41.97;25.92;;;;;;;-149.70;100.00;77634.41;4903665;29;20048;-61
2023/10/06 03:29:11;;;;;;;39.83;24.63;;;;;;;-149.70;100.00;77634.41;4903540;29;20127;-60
2023/10/06 03:31:47;;;;;;;42.45;25.25;;;;;;;-149.70;100.00;77638.47;4903556;29;20056;-61
2023/10/06 03:34:17;;;;;;;41.70;26.73;;;;;;;-149.70;100.00;77628.31;4904109;29;20048;-61
2023/10/06 03:36:55;;;;;;;39.53;25.13;;;;;;;-149.70;100.00;77630.34;4895683;29;20049;-61
2023/10/06 03:39:30;;;;;;;38.08;25.02;;;;;;;-149.70;100.00;77632.38;4885644;29;20410;-60
2023/10/06 03:42:00;;;;;;;43.42;25.88;;;;;;;-149.70;100.00;77630.34;4885483;29;20069;-60
2023/10/06 03:44:30;;;;;;;41.03;26.42;;;;;;;-149.70;100.00;77630.34;4885989;29;20053;-61
2023/10/06 03:47:00;;;;;;;42.67;26.25;;;;;;;-149.70;100.00;77628.31;4886514;29;20064;-61
2023/10/06 03:49:27;;;;;;;43.77;26.87;;;;;;;-149.70;100.00;77624.25;4885020;29;20060;-60
2023/10/06 03:51:57;;;;;;;43.95;26.15;;;;;;;-149.70;100.00;77618.16;4886168;29;20049;-62
2023/10/06 03:54:24;;;;;;;46.22;26.88;;;;;;;-149.70;100.00;77622.22;4886172;29;20064;-60
2023/10/06 03:56:51;;;;;;;43.30;28.38;;;;;;;-149.70;100.00;77620.19;4886358;29;20048;-62
2023/10/06 03:59:21;;;;;;;41.15;27.50;;;;;;;-149.70;100.00;77618.16;4887396;29;20059;-61
2023/10/06 04:01:48;;;;;;;43.67;27.42;;;;;;;-149.70;100.00;77626.28;4890479;29;20093;-60
2023/10/06 04:04:22;;;;;;;42.40;28.25;;;;;;;-149.70;100.00;77628.31;4889105;29;20112;-63
2023/10/06 04:06:49;;;;;;;45.97;28.77;;;;;;;-149.70;100.00;77632.38;4889142;29;20049;-60
2023/10/06 04:09:27;;;;;;;40.08;27.83;;;;;;;-149.70;100.00;77630.34;4889852;29;20049;-61
2023/10/06 04:12:00;;;;;;;49.95;31.30;;;;;;;-149.70;100.00;77642.56;4873082;29;20049;-63
2023/10/06 04:14:31;;;;;;;44.40;28.98;;;;;;;-149.70;100.00;77642.56;4872951;29;20053;-61
2023/10/06 04:17:01;;;;;;;54.22;30.73;;;;;;;-149.70;100.00;77650.69;4888752;29;20124;-60
2023/10/06 04:19:27;;;;;;;47.25;31.70;;;;;;;-149.70;100.00;77662.88;4889273;29;20056;-61
2023/10/06 04:21:54;;;;;;;61.80;34.25;;;;;;;-149.70;100.00;77664.94;4888387;29;20083;-60
2023/10/06 04:24:20;;;;;;;61.65;34.17;;;;;;;-149.70;100.00;77675.09;4889361;29;20068;-61
2023/10/06 04:26:47;;;;;;;75.53;35.80;;;;;;;-149.70;100.00;77677.13;4888837;29;20045;-60
2023/10/06 04:29:14;;;;;;;66.95;37.35;;;;;;;-149.70;100.00;77671.03;4888518;29;20049;-61
2023/10/06 04:31:41;;;;;;;62.47;36.22;;;;;;;-149.70;100.00;77658.81;4888791;29;20474;-60
2023/10/06 04:34:09;;;;;;;74.55;39.97;;;;;;;-149.70;100.00;77654.75;4889962;29;20056;-65
2023/10/06 04:36:37;;;;;;;70.22;39.28;;;;;;;-149.70;100.00;77648.66;4897371;29;20048;-61
2023/10/06 04:39:11;;;;;;;76.67;42.27;;;;;;;-149.70;100.00;77656.78;4908304;29;20057;-60
2023/10/06 04:41:41;;;;;;;70.07;42.87;;;;;;;-149.70;100.00;77662.88;4906844;29;20293;-61
2023/10/06 04:44:07;;;;;;;70.85;40.83;;;;;;;-149.70;100.00;77671.03;4907993;29;20080;-60
2023/10/06 04:46:35;;;;;;;77.03;42.50;;;;;;;-149.70;100.00;77669.00;4907688;29;20414;-60
2023/10/06 04:49:02;;;;;;;85.15;43.30;;;;;;;-149.70;100.00;77666.97;4903683;29;20049;-61
2023/10/06 04:51:28;;;;;;;76.32;43.70;;;;;;;-149.70;100.00;77669.00;4890245;29;20057;-61
2023/10/06 04:53:55;;;;;;;72.82;41.10;;;;;;;-149.70;100.00;77666.97;4872458;29;20052;-61
2023/10/06 04:56:22;;;;;;;67.85;42.92;;;;;;;-149.70;100.00;77666.97;4889549;29;20068;-61
2023/10/06 04:58:49;;;;;;;70.20;41.33;;;;;;;-149.70;100.00;77671.03;4889688;29;20076;-60
2023/10/06 05:01:16;;;;;;;78.80;44.85;;;;;;;-149.70;100.00;77664.94;4889445;29;20041;-60
2023/10/06 05:03:43;;;;;;;79.53;44.47;;;;;;;-149.70;100.00;77666.97;4889503;29;20052;-62
2023/10/06 05:06:18;;;;;;;78.10;42.97;;;;;;;-149.70;100.00;77662.88;4889690;29;20060;-60
2023/10/06 05:08:48;;;;;;;75.10;43.45;;;;;;;-149.70;100.00;77656.78;4888766;29;20056;-59
2023/10/06 05:11:17;;;;;;;83.30;47.05;;;;;;;-149.70;100.00;77652.72;4888449;29;20057;-60
2023/10/06 05:13:49;;;;;;;73.20;44.70;;;;;;;-149.70;100.00;77648.66;4888676;29;20085;-59
2023/10/06 05:16:15;;;;;;;72.82;42.00;;;;;;;-149.70;100.00;77648.66;4888539;29;20061;-60
2023/10/06 05:18:44;;;;;;;74.75;44.40;;;;;;;-149.70;100.00;77654.75;4888356;29;20371;-62
2023/10/06 05:21:11;;;;;;;84.15;45.05;;;;;;;-149.70;100.00;77671.03;4888832;29;20057;-60
2023/10/06 05:23:38;;;;;;;85.03;44.47;;;;;;;-149.70;100.00;77666.97;4888335;29;20048;-65
2023/10/06 05:26:08;;;;;;;68.95;43.28;;;;;;;-149.70;100.00;77666.97;4889180;29;20078;-60
2023/10/06 05:28:37;;;;;;;76.55;43.33;;;;;;;-149.70;100.00;77673.06;4889351;29;20084;-61
2023/10/06 05:31:07;;;;;;;72.57;43.33;;;;;;;-149.70;100.00;77675.09;4888497;29;20056;-60
2023/10/06 05:33:34;;;;;;;74.53;43.50;;;;;;;-149.70;100.00;77664.94;4888944;29;20049;-59
2023/10/06 05:36:11;;;;;;;78.95;46.05;;;;;;;-149.70;100.00;77658.81;4891775;29;20045;-60
2023/10/06 05:38:38;;;;;;;76.80;43.00;;;;;;;-149.70;100.00;77654.75;4906576;29;20088;-64
2023/10/06 05:41:11;;;;;;;64.75;40.20;;;;;;;-149.70;100.00;77644.59;4905630;29;20120;-60
2023/10/06 05:43:39;;;;;;;65.03;41.25;;;;;;;-149.70;100.00;77634.41;4906072;29;20052;-60
2023/10/06 05:46:06;;;;;;;65.20;42.55;;;;;;;-149.70;100.00;77638.47;4907156;29;20048;-61
2023/10/06 05:48:34;;;;;;;67.10;39.85;;;;;;;-149.70;100.00;77646.63;4905757;29;20108;-60
2023/10/06 05:51:09;;;;;;;61.65;40.83;;;;;;;-149.70;100.00;77652.72;4904535;29;20048;-65
2023/10/06 05:53:48;;;;;;;64.60;40.95;;;;;;;-149.70;100.00;77644.59;4906467;29;20052;-65
2023/10/06 05:56:26;;;;;;;74.85;41.05;;;;;;;-149.70;100.00;77666.97;4906019;29;20052;-65
2023/10/06 05:58:54;;;;;;;63.38;39.10;;;;;;;-149.70;100.00;77666.97;4905352;29;20128;-65
2023/10/06 06:01:28;;;;;;;67.53;39.25;;;;;;;-149.70;100.00;77650.69;4897628;29;20070;-65
2023/10/06 06:03:57;;;;;;;61.40;39.10;;;;;;;-149.70;100.00;77662.88;4887250;29;20056;-68
2023/10/06 06:06:27;;;;;;;61.67;39.38;;;;;;;-149.70;100.00;77662.88;4887884;29;20131;-65
2023/10/06 06:08:55;;;;;;;59.13;38.40;;;;;;;-149.70;100.00;77654.75;4867745;29;20710;-67
2023/10/06 06:11:28;;;;;;;61.90;38.20;;;;;;;-149.70;100.00;77658.81;4871409;29;20085;-66
2023/10/06 06:13:57;;;;;;;58.60;37.60;;;;;;;-149.70;100.00;77648.66;4861477;29;20541;-65
2023/10/06 06:16:44;;;;;;;73.95;37.42;;;;;;;-149.70;100.00;77654.75;4885377;29;20052;-65
2023/10/06 06:19:22;;;;;;;64.05;37.10;;;;;;;-149.70;100.00;77628.31;4887948;29;20185;-65
2023/10/06 06:21:52;;;;;;;65.85;34.58;;;;;;;-149.70;100.00;77614.06;4887277;29;20432;-65
2023/10/06 06:24:22;;;;;;;49.08;34.80;;;;;;;-149.70;100.00;77614.06;4887150;29;20473;-66
2023/10/06 06:26:49;;;;;;;52.50;33.22;;;;;;;-149.70;100.00;77591.72;4886411;29;20099;-65
2023/10/06 06:29:19;;;;;;;53.20;32.50;;;;;;;-149.70;100.00;77575.44;4886822;29;20145;-65
2023/10/06 06:31:49;;;;;;;47.00;31.70;;;;;;;-149.70;100.00;77561.19;4887149;29;20060;-64
2023/10/06 06:34:29;;;;;;;;;;;;;;;;;;;;;
2023/10/06 06:37:03;;;;;;;49.83;27.98;;;;;;;-149.70;100.00;77549.00;4868632;29;20061;-66
2023/10/06 06:39:37;;;;;;;45.78;29.17;;;;;;;-149.70;100.00;77551.03;4853953;29;20050;-65
2023/10/06 06:42:08;;;;;;;39.58;27.98;;;;;;;-149.70;100.00;77540.84;4868809;29;20082;-65
2023/10/06 06:44:36;;;;;;;43.70;26.98;;;;;;;-149.70;100.00;77544.94;4868582;29;20455;-65
2023/10/06 06:47:05;;;;;;;39.55;25.83;;;;;;;-149.70;100.00;77532.72;4868229;29;20053;-66
2023/10/06 06:49:49;;;;;;;43.20;25.73;;;;;;;0.51;100.00;100205.28;4868021;29;20049;-66
2023/10/06 06:52:16;;;;;;;38.60;25.67;;;;;;;1.43;100.00;100351.91;4860677;29;20057;-65
2023/10/06 06:54:51;;;;;;;39.70;24.33;;;;;;;2.11;100.00;100468.72;4867581;29;20046;-66
2023/10/06 06:57:20;;;;;;;43.00;26.02;;;;;;;2.28;100.00;100473.63;4867983;29;20109;-65
2023/10/06 06:59:47;;;;;;;33.03;23.50;;;;;;;3.46;100.00;100662.72;4866946;29;20053;-65
2023/10/06 07:02:14;;;;;;;39.00;23.48;;;;;;;4.56;100.00;100842.81;4858482;29;20069;-66
2023/10/06 07:04:44;;;;;;;33.63;23.48;;;;;;;5.56;100.00;100997.22;4866935;29;20053;-66
2023/10/06 07:07:22;;;;;;;33.67;21.85;;;;;;;5.73;100.00;101029.56;4866479;29;20056;-65
2023/10/06 07:09:49;;;;;;;36.92;22.13;;;;;;;6.02;100.00;101044.19;4868470;29;20112;-65
2023/10/06 07:12:15;;;;;;;33.80;21.42;;;;;;;6.97;100.00;101212.44;4867275;29;20104;-65
2023/10/06 07:14:45;;;;;;;38.28;21.67;;;;;;;7.44;100.00;101272.63;4851029;29;20068;-67
2023/10/06 07:17:12;;;;;;;31.15;20.92;;;;;;;7.59;100.00;101287.34;4869669;29;20054;-66
2023/10/06 07:19:42;;;;;;;30.33;20.85;;;;;;;7.91;100.00;101313.22;4868448;29;20068;-66
2023/10/06 07:22:10;;;;;;;33.13;19.38;;;;;;;8.49;100.00;101366.28;4867470;29;20132;-66
2023/10/06 07:24:40;;;;;;;30.20;18.63;;;;;;;8.70;100.00;101391.19;4867062;29;20050;-65
2023/10/06 07:27:14;;;;;;;29.25;17.85;;;;;;;9.00;100.00;101358.25;4866832;29;20395;-65
2023/10/06 07:29:41;;;;;;;30.75;16.27;;;;;;;9.18;100.00;101381.69;4865749;29;20059;-63
2023/10/06 07:32:07;;;;;;;21.38;15.25;;;;;;;9.08;100.00;101376.31;4866437;29;20045;-65
2023/10/06 07:34:34;;;;;;;27.83;16.40;;;;;;;9.15;100.00;101385.50;4865461;29;20049;-64
2023/10/06 07:37:01;;;;;;;26.58;15.90;;;;;;;8.92;100.00;101374.13;4876995;29;20052;-65
2023/10/06 07:39:28;;;;;;;32.05;15.90;;;;;;;9.24;100.00;101379.38;4884840;29;20056;-65
2023/10/06 07:41:56;;;;;;;33.70;15.93;;;;;;;9.23;100.00;101390.16;4884924;29;20053;-65
2023/10/06 07:44:25;;;;;;;30.33;15.50;;;;;;;9.22;100.00;101389.31;4885156;29;20054;-65
2023/10/06 07:46:52;;;;;;;23.70;15.02;;;;;;;9.45;100.00;101389.16;4884861;29;20498;-65
2023/10/06 07:49:19;;;;;;;32.72;14.75;;;;;;;9.87;100.00;101389.81;4884721;29;20061;-64
2023/10/06 07:51:46;;;;;;;27.13;12.88;;;;;;;10.36;100.00;101403.22;4884896;29;20041;-65
2023/10/06 07:54:13;;;;;;;18.30;11.98;;;;;;;11.00;100.00;101458.97;4884706;29;20049;-65
2023/10/06 07:56:42;;;;;;;32.72;12.70;;;;;;;10.81;100.00;101470.56;4883387;29;20108;-65
2023/10/06 07:59:10;;;;;;;18.85;11.18;;;;;;;10.77;100.00;101477.22;4884295;29;20076;-66
2023/10/06 08:01:38;;;;;;;20.40;11.25;;;;;;;10.73;100.00;101468.59;4884605;29;20056;-65
2023/10/06 08:04:05;;;;;;;26.08;11.63;;;;;;;11.01;100.00;101470.53;4885028;29;20060;-64
2023/10/06 08:06:32;;;;;;;20.25;11.27;;;;;;;11.19;100.00;101488.44;4883574;29;20056;-63
2023/10/06 08:08:59;;;;;;;18.63;9.60;;;;;;;11.69;100.00;101519.56;4875172;29;20053;-65
2023/10/06 08:11:26;;;;;;;19.25;9.48;;;;;;;11.82;100.00;101538.03;4884747;29;20057;-65
2023/10/06 08:13:54;;;;;;;17.55;9.43;;;;;;;11.72;100.00;101532.69;4884003;29;20045;-65
2023/10/06 08:16:21;;;;;;;15.48;9.10;;;;;;;11.61;100.00;101522.94;4883797;29;20104;-65
2023/10/06 08:18:48;;;;;;;17.60;9.07;;;;;;;11.97;100.00;101519.53;4883269;29;20065;-65
2023/10/06 08:21:15;;;;;;;26.90;10.38;;;;;;;11.99;100.00;101534.53;4882500;29;20053;-65
2023/10/06 08:23:41;;;;;;;21.45;9.10;;;;;;;11.59;100.00;101529.47;4884264;29;20074;-66
2023/10/06 08:26:08;;;;;;;18.02;9.15;;;;;;;11.62;100.00;101532.72;4883791;29;20057;-70
2023/10/06 08:28:36;;;;;;;19.85;9.35;;;;;;;11.78;100.00;101526.72;4883372;29;20041;-67
2023/10/06 08:31:13;;;;;;;19.70;8.75;;;;;;;11.87;100.00;101522.31;4883501;29;20045;-66
2023/10/06 08:33:40;;;;;;;21.85;9.57;;;;;;;12.04;100.00;101526.88;4883556;29;20053;-66
2023/10/06 08:36:10;;;;;;;19.42;9.65;;;;;;;11.99;100.00;101518.41;4887040;29;20076;-63
2023/10/06 08:38:37;;;;;;;20.85;9.02;;;;;;;12.00;100.00;101508.50;4902073;29;20100;-65
2023/10/06 08:41:04;;;;;;;27.45;8.57;;;;;;;12.09;100.00;101512.97;4903008;29;20080;-65
2023/10/06 08:43:36;;;;;;;23.17;8.90;;;;;;;11.95;100.00;101508.09;4902414;29;20048;-64
2023/10/06 08:46:02;;;;;;;17.10;9.27;;;;;;;12.54;100.00;101522.88;4903715;29;20044;-65
2023/10/06 08:48:31;;;;;;;16.92;8.60;;;;;;;12.90;100.00;101544.41;4893099;29;20071;-65
2023/10/06 08:50:59;;;;;;;20.48;7.80;;;;;;;13.64;100.00;101560.09;4905777;29;20048;-67
2023/10/06 08:53:26;;;;;;;16.70;6.80;;;;;;;14.60;100.00;101615.66;4904490;29;20104;-65
2023/10/06 08:55:53;;;;;;;16.17;7.07;;;;;;;14.69;100.00;101625.47;4903729;29;20076;-65
2023/10/06 08:58:21;;;;;;;13.93;7.13;;;;;;;14.70;100.00;101624.47;4904821;29;20049;-65
2023/10/06 09:00:48;;;;;;;16.73;5.88;;;;;;;14.13;100.00;101625.13;4904351;29;20056;-65
2023/10/06 09:03:22;;;;;;;18.27;6.88;;;;;;;14.03;100.00;101625.25;4904993;29;20101;-63
2023/10/06 09:05:53;;;;;;;15.02;6.35;;;;;;;14.01;100.00;101618.31;4904552;29;20072;-66
2023/10/06 09:08:21;;;;;;;10.52;5.88;;;;;;;14.06;100.00;101619.53;4887690;29;20052;-66
2023/10/06 09:10:49;;;;;;;14.05;5.68;;;;;;;14.30;100.00;101626.88;4903285;29;20058;-64
2023/10/06 09:13:21;;;;;;;14.80;6.20;;;;;;;14.50;100.00;101627.47;4903970;29;20405;-65
2023/10/06 09:15:59;;;;;;;12.02;5.88;;;;;;;14.49;100.00;101619.50;4902857;29;20048;-65
2023/10/06 09:18:47;;;;;;;19.63;5.88;;;;;;;13.88;100.00;101626.00;4903733;29;20053;-63
2023/10/06 09:21:20;;;;;;;12.68;4.95;;;;;;;14.29;100.00;101636.00;4903295;29;20048;-63
2023/10/06 09:23:49;;;;;;;14.43;5.30;;;;;;;14.14;100.00;101628.66;4903676;29;20053;-65
2023/10/06 09:26:29;;;;;;;11.80;5.22;;;;;;;13.86;100.00;101628.00;4902905;29;20532;-64
2023/10/06 09:29:01;;;;;;;15.05;4.63;;;;;;;13.93;100.00;101619.13;4903021;29;20055;-64
2023/10/06 09:31:36;;;;;;;12.95;5.00;;;;;;;14.44;100.00;101632.66;4902952;29;20084;-65
2023/10/06 09:34:12;;;;;;;14.25;4.70;;;;;;;14.94;100.00;101624.53;4886414;29;20056;-64
2023/10/06 09:36:42;;;;;;;16.95;4.30;;;;;;;15.32;100.00;101626.75;4883198;29;20072;-66
2023/10/06 09:39:15;;;;;;;8.43;3.80;;;;;;;16.40;100.00;101622.63;4889859;29;20124;-64
2023/10/06 09:41:42;;;;;;;9.63;3.87;;;;;;;16.85;100.00;101626.47;4884429;29;20132;-65
2023/10/06 09:44:11;;;;;;;15.88;4.75;;;;;;;16.60;100.00;101617.63;4884421;29;20053;-67
2023/10/06 09:46:43;;;;;;;13.10;3.97;;;;;;;16.49;100.00;101607.16;4884719;29;20067;-67
2023/10/06 09:49:18;;;;;;;13.70;4.18;;;;;;;15.45;100.00;101613.56;4885768;29;20056;-65
2023/10/06 09:51:47;;;;;;;12.43;4.43;;;;;;;15.69;100.00;101599.19;4885428;29;20101;-64
2023/10/06 09:54:14;;;;;;;15.43;4.32;;;;;;;15.81;100.00;101592.41;4865631;29;20056;-66
2023/10/06 09:56:42;;;;;;;10.95;4.13;;;;;;;15.85;100.00;101595.63;4883852;29;20218;-65
2023/10/06 09:59:13;;;;;;;8.18;3.47;;;;;;;16.85;100.00;101585.81;4867549;29;20045;-66
2023/10/06 10:01:45;;;;;;;11.65;3.67;;;;;;;17.62;100.00;101584.81;4882211;29;20053;-66
2023/10/06 10:04:14;;;;;;;16.98;3.47;;;;;;;17.11;100.00;101587.28;4883559;29;20049;-65
2023/10/06 10:06:45;;;;;;;19.02;3.70;;;;;;;16.58;100.00;101581.75;4883799;29;20056;-65
2023/10/06 10:09:16;;;;;;;12.80;3.55;;;;;;;16.79;100.00;101574.84;4886412;29;20065;-66
2023/10/06 10:11:51;;;;;;;7.22;3.40;;;;;;;16.25;100.00;101567.53;4883831;29;20049;-67
2023/10/06 10:14:36;;;;;;;15.23;3.38;;;;;;;15.62;100.00;101568.41;4883698;29;20056;-65
2023/10/06 10:17:13;;;;;;;15.15;4.00;;;;;;;15.16;100.00;101563.59;4883068;29;20045;-65
2023/10/06 10:19:45;;;;;;;10.13;3.30;;;;;;;15.10;100.00;101558.84;4883149;29;20466;-65
2023/10/06 10:22:13;;;;;;;10.68;3.50;;;;;;;14.92;100.00;101566.28;4874945;29;20056;-67
2023/10/06 10:24:40;;;;;;;9.90;3.67;;;;;;;15.13;100.00;101568.50;4897296;29;20104;-66
2023/10/06 10:27:37;;;;;;;10.55;3.22;;;;;;;14.59;100.00;101562.66;4885534;29;20053;-66
2023/10/06 10:30:47;;;;;;;17.40;3.45;;;;;;;14.51;100.00;101560.81;4882861;29;20049;-65
2023/10/06 10:33:21;;;;;;;10.80;3.65;;;;;;;14.34;100.00;101567.19;4874077;29;20048;-62
2023/10/06 10:36:12;;;;;;;17.13;3.40;;;;;;;14.49;100.00;101552.00;4884471;29;20105;-64
2023/10/06 10:38:41;;;;;;;10.40;3.10;;;;;;;14.40;100.00;101547.63;4885557;29;20044;-68
2023/10/06 10:41:12;;;;;;;9.68;2.95;;;;;;;14.24;100.00;101549.25;4880752;29;20049;-63
2023/10/06 10:43:48;;;;;;;15.10;3.38;;;;;;;14.09;100.00;101537.41;4898310;29;20044;-67
2023/10/06 10:46:52;;;;;;;12.40;2.88;;;;;;;14.01;100.00;101530.16;4901347;29;20059;-63
2023/10/06 10:49:22;;;;;;;7.82;3.13;;;;;;;13.96;100.00;101527.06;4902328;29;20045;-66
2023/10/06 10:51:54;;;;;;;16.77;3.78;;;;;;;14.08;100.00;101519.53;4900032;29;20394;-65
2023/10/06 10:54:44;;;;;;;;;;;;;;;14.09;100.00;101518.53;4903654;29;20323;-65
2023/10/06 10:57:18;;;;;;;10.65;3.42;;;;;;;14.12;100.00;101523.59;4901547;29;20353;-65
2023/10/06 11:00:00;;;;;;;10.60;3.30;;;;;;;14.12;100.00;101522.75;4901693;29;20120;-64
2023/10/06 11:02:44;;;;;;;10.30;2.95;;;;;;;14.08;100.00;101522.25;4901823;29;20052;-65
2023/10/06 11:05:11;;;;;;;10.48;3.20;;;;;;;14.23;100.00;101536.78;4902071;29;20044;-67
2023/10/06 11:07:39;;;;;;;11.07;3.22;;;;;;;14.32;100.00;101531.38;4902511;29;20048;-62
2023/10/06 11:10:06;;;;;;;9.88;3.00;;;;;;;14.46;100.00;101533.44;4903073;29;20049;-65
2023/10/06 11:12:35;;;;;;;14.23;3.40;;;;;;;14.63;100.00;101526.22;4885497;29;20056;-65
2023/10/06 11:15:14;;;;;;;9.63;2.92;;;;;;;14.49;100.00;101527.72;4885846;29;20461;-66
2023/10/06 11:17:42;;;;;;;8.43;2.85;;;;;;;14.56;100.00;101515.22;4902433;29;20044;-64
2023/10/06 11:20:15;;;;;;;9.27;2.90;;;;;;;14.72;100.00;101539.59;4902882;29;20049;-63
2023/10/06 11:22:59;;;;;;;10.90;3.13;;;;;;;14.72;100.00;101533.34;4902919;29;20048;-67
2023/10/06 11:25:28;;;;;;;9.65;3.30;;;;;;;14.43;100.00;101512.22;4902540;29;20052;-63
2023/10/06 11:28:12;;;;;;;9.40;3.42;;;;;;;14.56;100.00;101506.28;4902094;29;20080;-64
2023/10/06 11:30:41;;;;;;;14.63;3.60;;;;;;;14.54;100.00;101503.78;4901951;29;20102;-70